createdAt,value
2019-03-16T00:02:07.421Z,10.60
2019-03-16T00:04:44.927Z,10.60
2019-03-16T00:07:17.932Z,10.60
2019-03-16T00:09:49.406Z,10.60
2019-03-16T00:12:30.770Z,10.60
2019-03-16T00:15:09.220Z,10.50
2019-03-16T00:17:39.056Z,10.60
2019-03-16T00:20:11.505Z,10.60
2019-03-16T00:22:43.912Z,10.60
2019-03-16T00:25:21.745Z,10.60
2019-03-16T00:27:53.189Z,10.60
2019-03-16T00:30:27.315Z,10.60
2019-03-16T00:32:59.713Z,10.60
2019-03-16T00:35:37.379Z,10.60
2019-03-16T00:38:18.694Z,10.60
2019-03-16T00:40:50.467Z,10.70
2019-03-16T00:43:25.022Z,10.80
2019-03-16T00:45:55.088Z,10.80
2019-03-16T00:48:29.928Z,10.70
2019-03-16T00:51:03.676Z,10.70
2019-03-16T00:53:35.282Z,10.80
2019-03-16T00:56:09.268Z,10.80
2019-03-16T00:58:40.783Z,10.80
2019-03-16T01:01:14.252Z,10.80
2019-03-16T01:03:48.552Z,10.80
2019-03-16T01:06:15.716Z,10.80
2019-03-16T01:08:48.667Z,10.80
2019-03-16T01:11:22.935Z,10.80
2019-03-16T01:13:52.530Z,10.80
2019-03-16T01:16:40.275Z,10.80
2019-03-16T01:19:12.193Z,10.80
2019-03-16T01:21:42.061Z,10.80
2019-03-16T01:27:10.954Z,10.80
2019-03-16T01:29:36.551Z,10.80
2019-03-16T01:32:22.653Z,10.70
2019-03-16T01:34:50.122Z,10.80
2019-03-16T01:37:20.094Z,10.80
2019-03-16T01:39:57.787Z,10.80
2019-03-16T01:42:32.050Z,10.70
2019-03-16T01:45:01.918Z,10.70
2019-03-16T01:47:36.672Z,10.80
2019-03-16T01:50:06.839Z,10.70
2019-03-16T01:52:39.958Z,10.70
2019-03-16T01:55:10.095Z,10.70
2019-03-16T01:57:40.230Z,10.70
2019-03-16T02:00:16.220Z,10.60
2019-03-16T02:02:55.563Z,10.60
2019-03-16T02:05:32.942Z,10.60
2019-03-16T02:19:41.278Z,10.50
2019-03-16T02:22:11.297Z,10.50
2019-03-16T02:24:44.137Z,10.50
2019-03-16T02:27:20.777Z,10.40
2019-03-16T02:29:48.310Z,10.40
2019-03-16T02:32:23.740Z,10.40
2019-03-16T02:34:54.776Z,10.40
2019-03-16T02:37:27.832Z,10.40
2019-03-16T02:40:05.237Z,10.40
2019-03-16T02:42:35.210Z,10.40
2019-03-16T02:45:05.624Z,10.30
2019-03-16T02:47:46.961Z,10.30
2019-03-16T02:50:26.203Z,10.30
2019-03-16T02:53:01.699Z,10.20
2019-03-16T02:55:32.957Z,10.20
2019-03-16T02:58:07.009Z,10.20
2019-03-16T03:00:48.408Z,10.20
2019-03-16T03:03:29.355Z,10.20
2019-03-16T03:05:55.237Z,10.10
2019-03-16T03:08:31.093Z,10.10
2019-03-16T03:11:04.802Z,10.10
2019-03-16T03:13:36.546Z,10.00
2019-03-16T03:16:13.948Z,10.00
2019-03-16T03:18:44.048Z,10.00
2019-03-16T03:21:13.881Z,10.00
2019-03-16T03:23:50.862Z,10.00
2019-03-16T03:26:31.981Z,10.00
2019-03-16T03:28:59.474Z,10.00
2019-03-16T03:31:35.105Z,10.00
2019-03-16T03:34:06.788Z,10.00
2019-03-16T03:36:37.106Z,10.00
2019-03-16T03:39:10.114Z,10.00
2019-03-16T03:41:55.855Z,10.00
2019-03-16T03:44:13.317Z,10.00
2019-03-16T03:46:46.471Z,10.00
2019-03-16T03:49:16.537Z,10.10
2019-03-16T03:51:46.486Z,10.10
2019-03-16T03:54:16.448Z,10.10
2019-03-16T03:56:46.362Z,10.10
2019-03-16T03:59:23.573Z,10.10
2019-03-16T04:01:57.015Z,10.10
2019-03-16T04:04:27.638Z,10.10
2019-03-16T04:07:03.033Z,10.10
2019-03-16T04:09:35.481Z,10.20
2019-03-16T04:12:10.772Z,10.10
2019-03-16T04:14:45.125Z,10.10
2019-03-16T04:17:22.892Z,10.20
2019-03-16T04:19:48.495Z,10.10
2019-03-16T04:22:19.718Z,10.20
2019-03-16T04:24:49.754Z,10.10
2019-03-16T04:27:24.494Z,10.20
2019-03-16T04:29:54.584Z,10.10
2019-03-16T04:32:27.056Z,10.20
2019-03-16T04:34:59.225Z,10.10
2019-03-16T04:37:29.224Z,10.20
2019-03-16T04:40:02.622Z,10.20
2019-03-16T04:42:38.836Z,10.20
2019-03-16T04:45:16.190Z,10.20
2019-03-16T04:47:46.250Z,10.30
2019-03-16T04:50:22.201Z,10.30
2019-03-16T04:52:52.837Z,10.30
2019-03-16T04:55:25.490Z,10.30
2019-03-16T04:58:01.705Z,10.30
2019-03-16T05:00:27.222Z,10.30
2019-03-16T05:02:57.371Z,10.30
2019-03-16T05:05:27.301Z,10.30
2019-03-16T05:07:58.564Z,10.20
2019-03-16T05:10:29.934Z,10.30
2019-03-16T05:13:05.751Z,10.30
2019-03-16T05:15:50.694Z,10.20
2019-03-16T05:18:20.128Z,10.30
2019-03-16T05:20:54.839Z,10.20
2019-03-16T05:23:24.818Z,10.20
2019-03-16T05:25:56.951Z,10.20
2019-03-16T05:28:31.752Z,10.20
2019-03-16T05:31:01.877Z,10.20
2019-03-16T05:33:39.613Z,10.20
2019-03-16T05:36:11.245Z,10.20
2019-03-16T05:38:41.220Z,10.20
2019-03-16T05:41:15.067Z,10.20
2019-03-16T05:43:44.960Z,10.20
2019-03-16T05:46:18.063Z,10.20
2019-03-16T05:49:01.887Z,10.20
2019-03-16T05:51:20.765Z,10.20
2019-03-16T05:53:52.447Z,10.20
2019-03-16T05:56:27.332Z,10.10
2019-03-16T05:58:59.059Z,10.10
2019-03-16T06:01:30.979Z,10.10
2019-03-16T06:04:00.975Z,10.10
2019-03-16T06:06:32.957Z,10.10
2019-03-16T06:09:02.814Z,10.20
2019-03-16T06:11:33.070Z,10.10
2019-03-16T06:14:03.059Z,10.20
2019-03-16T06:16:36.031Z,10.20
2019-03-16T06:19:10.466Z,10.20
2019-03-16T06:21:40.426Z,10.20
2019-03-16T06:24:14.814Z,10.20
2019-03-16T06:26:48.232Z,10.20
2019-03-16T06:29:29.013Z,10.20
2019-03-16T06:31:53.459Z,10.30
2019-03-16T06:34:30.784Z,10.20
2019-03-16T06:37:02.064Z,10.20
2019-03-16T06:39:35.022Z,10.20
2019-03-16T06:42:07.356Z,10.20
2019-03-16T06:44:37.306Z,10.30
2019-03-16T06:47:08.140Z,10.20
2019-03-16T06:49:38.169Z,10.20
2019-03-16T06:52:09.731Z,10.20
2019-03-16T06:54:41.568Z,10.20
2019-03-16T06:57:14.056Z,10.10
2019-03-16T06:59:53.133Z,10.10
2019-03-16T07:02:18.716Z,10.10
2019-03-16T07:04:48.851Z,10.10
2019-03-16T07:07:20.160Z,10.10
2019-03-16T07:09:52.014Z,10.20
2019-03-16T07:12:28.294Z,10.10
2019-03-16T07:15:00.365Z,10.10
2019-03-16T07:17:32.437Z,10.00
2019-03-16T07:20:03.476Z,10.10
2019-03-16T07:22:33.267Z,10.10
2019-03-16T07:25:06.685Z,10.10
2019-03-16T07:27:36.630Z,10.10
2019-03-16T07:30:11.160Z,10.10
2019-03-16T07:32:42.540Z,10.10
2019-03-16T07:35:15.657Z,10.20
2019-03-16T07:37:45.726Z,10.20
2019-03-16T07:40:17.060Z,10.20
2019-03-16T07:42:52.377Z,10.20
2019-03-16T07:45:22.293Z,10.10
2019-03-16T07:47:55.799Z,10.10
2019-03-16T07:50:26.735Z,10.10
2019-03-16T07:52:58.586Z,10.10
2019-03-16T07:55:42.146Z,10.00
2019-03-16T07:58:13.464Z,10.00
2019-03-16T08:00:45.117Z,9.90
2019-03-16T08:03:23.780Z,9.90
2019-03-16T08:05:53.676Z,9.90
2019-03-16T08:08:25.297Z,9.90
2019-03-16T08:10:59.812Z,10.00
2019-03-16T08:13:44.521Z,10.00
2019-03-16T08:16:06.443Z,10.10
2019-03-16T08:18:42.996Z,10.20
2019-03-16T08:21:22.123Z,10.20
2019-03-16T08:23:56.745Z,10.20
2019-03-16T08:26:29.647Z,10.20
2019-03-16T08:29:06.869Z,10.30
2019-03-16T08:31:36.819Z,10.30
2019-03-16T08:34:16.175Z,10.40
2019-03-16T08:36:48.342Z,10.50
2019-03-16T08:39:21.320Z,10.50
2019-03-16T08:42:13.241Z,10.50
2019-03-16T08:44:48.398Z,10.50
2019-03-16T08:47:18.605Z,10.50
2019-03-16T08:49:53.152Z,10.50
2019-03-16T08:52:24.195Z,10.60
2019-03-16T08:54:59.884Z,10.60
2019-03-16T08:57:34.153Z,10.60
2019-03-16T09:00:08.827Z,10.60
2019-03-16T09:02:43.281Z,10.70
2019-03-16T09:05:26.924Z,10.70
2019-03-16T09:07:56.855Z,10.70
2019-03-16T09:10:27.229Z,10.80
2019-03-16T09:12:58.674Z,10.80
2019-03-16T09:15:31.720Z,10.80
2019-03-16T09:18:03.573Z,10.80
2019-03-16T09:20:40.359Z,10.80
2019-03-16T09:23:10.760Z,10.70
2019-03-16T09:25:42.448Z,10.70
2019-03-16T09:28:23.718Z,10.70
2019-03-16T09:30:56.408Z,10.60
2019-03-16T09:33:20.285Z,10.60
2019-03-16T09:35:52.681Z,10.50
2019-03-16T09:38:24.808Z,10.50
2019-03-16T09:40:54.741Z,10.50
2019-03-16T09:43:28.453Z,10.50
2019-03-16T09:46:06.034Z,10.50
2019-03-16T09:48:37.351Z,10.50
2019-03-16T09:51:09.056Z,10.60
2019-03-16T09:53:39.143Z,10.60
2019-03-16T09:56:12.966Z,10.60
2019-03-16T09:58:44.764Z,10.70
2019-03-16T10:01:19.629Z,10.70
2019-03-16T10:03:55.772Z,10.70
2019-03-16T10:06:29.021Z,10.60
2019-03-16T10:09:06.321Z,10.60
2019-03-16T10:11:43.970Z,10.60
2019-03-16T10:14:14.840Z,10.60
2019-03-16T10:16:48.537Z,10.70
2019-03-16T10:19:27.353Z,10.70
2019-03-16T10:22:04.830Z,10.70
2019-03-16T10:24:36.026Z,10.70
2019-03-16T10:27:08.067Z,10.70
2019-03-16T10:29:38.781Z,10.60
2019-03-16T10:32:08.923Z,10.50
2019-03-16T10:34:41.072Z,10.50
2019-03-16T10:37:16.926Z,10.50
2019-03-16T10:39:55.433Z,10.60
2019-03-16T10:42:20.863Z,10.70
2019-03-16T10:44:50.803Z,10.80
2019-03-16T10:47:26.002Z,10.90
2019-03-16T10:49:58.718Z,10.90
2019-03-16T10:52:31.689Z,10.90
2019-03-16T10:55:02.968Z,10.90
2019-03-16T10:57:35.798Z,11.00
2019-03-16T11:00:19.391Z,10.90
2019-03-16T11:02:42.496Z,11.00
2019-03-16T11:05:15.639Z,11.10
2019-03-16T11:07:47.557Z,11.10
2019-03-16T11:10:24.466Z,11.10
2019-03-16T11:12:55.004Z,11.10
2019-03-16T11:15:35.556Z,11.10
2019-03-16T11:17:58.726Z,11.00
2019-03-16T11:20:31.256Z,11.00
2019-03-16T11:23:14.024Z,11.00
2019-03-16T11:25:46.321Z,11.00
2019-03-16T11:28:16.592Z,11.10
2019-03-16T11:31:05.269Z,11.10
2019-03-16T11:33:26.750Z,11.20
2019-03-16T11:35:57.849Z,11.20
2019-03-16T11:38:40.546Z,11.20
2019-03-16T11:41:15.177Z,11.30
2019-03-16T11:43:49.935Z,11.30
2019-03-16T11:48:58.214Z,11.40
2019-03-16T11:51:41.429Z,11.40
2019-03-16T11:54:14.293Z,11.50
2019-03-16T11:57:20.311Z,11.50
2019-03-16T11:59:48.041Z,11.50
2019-03-16T12:02:17.991Z,11.30
2019-03-16T12:04:59.550Z,11.30
2019-03-16T12:07:32.002Z,11.20
2019-03-16T12:10:06.269Z,11.30
2019-03-16T12:12:37.485Z,11.20
2019-03-16T12:15:07.729Z,11.30
2019-03-16T12:17:37.855Z,11.40
2019-03-16T12:20:10.059Z,11.50
2019-03-16T12:22:39.962Z,11.40
2019-03-16T12:25:11.899Z,11.40
2019-03-16T12:27:46.123Z,11.40
2019-03-16T12:30:28.999Z,11.40
2019-03-16T12:33:02.394Z,11.20
2019-03-16T12:35:32.427Z,11.30
2019-03-16T12:38:14.103Z,11.10
2019-03-16T12:40:48.563Z,11.00
2019-03-16T12:43:16.300Z,10.90
2019-03-16T12:45:52.624Z,11.00
2019-03-16T12:48:26.289Z,11.10
2019-03-16T12:50:54.507Z,11.30
2019-03-16T12:53:24.568Z,11.40
2019-03-16T12:55:57.039Z,11.50
2019-03-16T12:58:26.848Z,11.40
2019-03-16T13:00:56.778Z,11.40
2019-03-16T13:03:26.880Z,11.30
2019-03-16T13:05:56.864Z,11.30
2019-03-16T13:08:37.251Z,11.40
2019-03-16T13:11:11.849Z,11.10
2019-03-16T13:13:41.856Z,11.20
2019-03-16T13:16:14.444Z,11.10
2019-03-16T13:19:04.162Z,11.10
2019-03-16T13:21:25.281Z,11.20
2019-03-16T13:23:55.590Z,11.40
2019-03-16T13:26:29.671Z,11.40
2019-03-16T13:29:07.093Z,11.40
2019-03-16T13:31:49.843Z,11.50
2019-03-16T13:34:11.353Z,11.40
2019-03-16T13:36:41.488Z,11.30
2019-03-16T13:39:11.707Z,11.40
2019-03-16T13:41:45.173Z,11.50
2019-03-16T13:44:15.117Z,11.50
2019-03-16T13:46:46.330Z,11.50
2019-03-16T13:49:20.750Z,11.40
2019-03-16T13:51:50.689Z,11.20
2019-03-16T13:54:23.153Z,11.20
2019-03-16T13:56:53.491Z,11.10
2019-03-16T13:59:23.593Z,11.20
2019-03-16T14:01:55.155Z,11.30
2019-03-16T14:04:25.162Z,11.30
2019-03-16T14:06:55.232Z,11.30
2019-03-16T14:09:25.067Z,11.50
2019-03-16T14:11:57.673Z,11.60
2019-03-16T14:14:27.643Z,11.60
2019-03-16T14:17:14.985Z,11.70
2019-03-16T14:19:44.903Z,11.70
2019-03-16T14:22:14.872Z,11.80
2019-03-16T14:24:44.966Z,11.50
2019-03-16T14:27:33.889Z,11.50
2019-03-16T14:30:08.150Z,11.40
2019-03-16T14:32:40.622Z,11.30
2019-03-16T14:35:11.001Z,11.10
2019-03-16T14:37:44.517Z,11.10
2019-03-16T14:40:17.234Z,11.10
2019-03-16T14:42:51.435Z,11.00
2019-03-16T14:45:21.870Z,11.00
2019-03-16T14:47:56.320Z,10.90
2019-03-16T14:50:29.407Z,10.90
2019-03-16T14:53:05.163Z,10.90
2019-03-16T14:55:32.445Z,10.90
2019-03-16T14:58:05.784Z,10.90
2019-03-16T15:00:38.767Z,10.80
2019-03-16T15:03:13.551Z,10.90
2019-03-16T15:05:39.539Z,10.90
2019-03-16T15:08:17.910Z,10.90
2019-03-16T15:10:43.315Z,10.90
2019-03-16T15:13:18.705Z,11.00
2019-03-16T15:16:00.840Z,10.90
2019-03-16T15:18:27.329Z,10.90
2019-03-16T15:20:57.865Z,10.90
2019-03-16T15:23:31.704Z,10.90
2019-03-16T15:26:04.399Z,10.90
2019-03-16T15:28:34.230Z,10.90
2019-03-16T15:31:08.392Z,10.90
2019-03-16T15:33:37.665Z,10.90
2019-03-16T15:36:07.701Z,10.90
2019-03-16T15:38:37.824Z,10.80
2019-03-16T15:41:10.357Z,10.80
2019-03-16T15:43:46.268Z,10.80
2019-03-16T15:46:19.376Z,10.70
2019-03-16T15:49:08.703Z,10.80
2019-03-16T15:51:47.449Z,10.70
2019-03-16T15:54:13.218Z,10.70
2019-03-16T15:56:43.076Z,10.80
2019-03-16T15:59:12.945Z,10.70
2019-03-16T16:01:42.928Z,10.80
2019-03-16T16:04:12.914Z,10.80
2019-03-16T16:06:46.933Z,10.70
2019-03-16T16:09:25.985Z,10.70
2019-03-16T16:12:02.255Z,10.70
2019-03-16T16:14:47.689Z,10.70
2019-03-16T16:17:06.966Z,10.70
2019-03-16T16:19:39.348Z,10.70
2019-03-16T16:22:09.944Z,10.70
2019-03-16T16:24:40.136Z,10.70
2019-03-16T16:27:11.750Z,10.60
2019-03-16T16:29:46.345Z,10.60
2019-03-16T16:32:14.964Z,10.60
2019-03-16T16:34:51.370Z,10.60
2019-03-16T16:37:31.793Z,10.50
2019-03-16T16:40:01.593Z,10.50
2019-03-16T16:42:31.514Z,10.40
2019-03-16T16:45:16.083Z,10.40
2019-03-16T16:47:36.707Z,10.40
2019-03-16T16:50:08.324Z,10.50
2019-03-16T16:52:40.913Z,10.40
2019-03-16T16:57:48.146Z,10.50
2019-03-16T17:00:22.225Z,10.50
2019-03-16T17:02:55.750Z,10.40
2019-03-16T17:05:26.215Z,10.40
2019-03-16T17:08:01.119Z,10.40
2019-03-16T17:10:30.944Z,10.30
2019-03-16T17:13:00.936Z,10.20
2019-03-16T17:15:32.263Z,10.20
2019-03-16T17:18:10.401Z,10.20
2019-03-16T17:20:38.013Z,10.20
2019-03-16T17:23:14.312Z,10.10
2019-03-16T17:25:44.176Z,10.10
2019-03-16T17:28:14.170Z,10.10
2019-03-16T17:31:05.445Z,10.00
2019-03-16T17:33:36.991Z,10.00
2019-03-16T17:36:07.042Z,10.00
2019-03-16T17:38:39.392Z,10.00
2019-03-16T17:41:09.463Z,10.00
2019-03-16T17:43:52.401Z,10.10
2019-03-16T17:46:15.580Z,10.10
2019-03-16T17:48:48.527Z,10.00
2019-03-16T17:51:29.191Z,10.00
2019-03-16T17:53:59.267Z,10.10
2019-03-16T17:56:39.848Z,10.00
2019-03-16T17:59:12.187Z,10.00
2019-03-16T18:01:54.576Z,9.90
2019-03-16T18:04:21.580Z,9.90
2019-03-16T18:06:56.503Z,9.80
2019-03-16T18:09:39.245Z,9.90
2019-03-16T18:12:09.357Z,9.80
2019-03-16T18:14:41.219Z,9.80
2019-03-16T18:17:12.960Z,9.80
2019-03-16T18:19:48.324Z,9.80
2019-03-16T18:22:26.206Z,9.80
2019-03-16T18:25:04.522Z,9.70
2019-03-16T18:27:32.087Z,9.70
2019-03-16T18:30:05.213Z,9.60
2019-03-16T18:32:41.853Z,9.60
2019-03-16T18:35:25.813Z,9.50
2019-03-16T18:37:54.123Z,9.50
2019-03-16T18:40:25.610Z,9.50
2019-03-16T18:42:57.989Z,9.50
2019-03-16T18:45:32.825Z,9.50
2019-03-16T18:48:11.803Z,9.40
2019-03-16T18:50:46.894Z,9.40
2019-03-16T18:53:18.980Z,9.30
2019-03-16T18:55:52.321Z,9.30
2019-03-16T18:58:36.543Z,9.30
2019-03-16T19:00:59.891Z,9.30
2019-03-16T19:03:32.596Z,9.30
2019-03-16T19:06:19.651Z,9.30
2019-03-16T19:08:36.272Z,9.30
2019-03-16T19:11:07.750Z,9.30
2019-03-16T19:13:37.922Z,9.30
2019-03-16T19:16:12.364Z,9.30
2019-03-16T19:18:42.783Z,9.30
2019-03-16T19:21:14.433Z,9.20
2019-03-16T19:23:45.061Z,9.20
2019-03-16T19:26:20.215Z,9.20
2019-03-16T19:28:52.915Z,9.20
2019-03-16T19:31:27.030Z,9.20
2019-03-16T19:34:00.558Z,9.20
2019-03-16T19:36:37.676Z,9.20
2019-03-16T19:39:08.417Z,9.20
2019-03-16T19:41:42.045Z,9.20
2019-03-16T19:44:18.281Z,9.10
2019-03-16T19:46:50.876Z,9.20
2019-03-16T19:49:21.083Z,9.20
2019-03-16T19:51:53.485Z,9.20
2019-03-16T19:54:25.659Z,9.20
2019-03-16T19:56:57.254Z,9.20
2019-03-16T19:59:30.876Z,9.20
2019-03-16T20:02:07.773Z,9.20
2019-03-16T20:04:37.882Z,9.20
2019-03-16T20:07:19.112Z,9.10
2019-03-16T20:09:48.314Z,9.10
2019-03-16T20:12:20.535Z,9.10
2019-03-16T20:14:57.313Z,9.10
2019-03-16T20:17:29.703Z,9.10
2019-03-16T20:20:02.275Z,9.10
2019-03-16T20:22:35.285Z,9.10
2019-03-16T20:25:06.954Z,9.00
2019-03-16T20:27:36.924Z,9.10
2019-03-16T20:30:07.345Z,9.00
2019-03-16T20:32:48.547Z,9.10
2019-03-16T20:35:26.644Z,9.10
2019-03-16T20:37:58.184Z,9.10
2019-03-16T20:40:28.565Z,9.10
2019-03-16T20:43:05.076Z,9.10
2019-03-16T20:45:39.059Z,9.10
2019-03-16T20:48:10.749Z,9.10
2019-03-16T20:50:44.249Z,9.10
2019-03-16T20:53:15.933Z,9.10
2019-03-16T20:55:45.949Z,9.10
2019-03-16T20:58:19.447Z,9.10
2019-03-16T21:00:50.690Z,9.10
2019-03-16T21:03:27.692Z,9.10
2019-03-16T21:06:04.107Z,9.10
2019-03-16T21:08:30.665Z,9.10
2019-03-16T21:11:03.062Z,9.20
2019-03-16T21:13:32.965Z,9.00
2019-03-16T21:16:10.658Z,9.00
2019-03-16T21:18:50.346Z,8.90
2019-03-16T21:21:16.474Z,8.80
2019-03-16T21:23:50.479Z,8.70
2019-03-16T21:26:25.899Z,8.60
2019-03-16T21:28:56.033Z,8.40
2019-03-16T21:31:32.682Z,8.30
2019-03-16T21:34:07.709Z,8.20
2019-03-16T21:36:41.946Z,8.20
2019-03-16T21:39:19.023Z,8.10
2019-03-16T21:41:57.826Z,8.10
2019-03-16T21:44:27.936Z,8.00
2019-03-16T21:47:09.251Z,7.90
2019-03-16T21:49:39.198Z,7.90
2019-03-16T21:52:25.165Z,7.90
2019-03-16T21:54:46.948Z,7.80
2019-03-16T21:57:28.684Z,7.80
2019-03-16T21:59:58.788Z,7.80
2019-03-16T22:02:36.975Z,7.70
2019-03-16T22:05:06.816Z,7.70
2019-03-16T22:07:51.134Z,7.70
2019-03-16T22:10:21.693Z,7.70
2019-03-16T22:12:52.433Z,7.70
2019-03-16T22:15:26.511Z,7.70
2019-03-16T22:18:04.016Z,7.70
2019-03-16T22:20:36.816Z,7.70
2019-03-16T22:23:11.120Z,7.70
2019-03-16T22:25:45.326Z,7.70
2019-03-16T22:28:21.291Z,7.70
2019-03-16T22:30:56.357Z,7.70
2019-03-16T22:33:29.230Z,7.70
2019-03-16T22:36:01.168Z,7.60
2019-03-16T22:38:41.436Z,7.60
2019-03-16T22:41:15.443Z,7.70
2019-03-16T22:43:45.495Z,7.60
2019-03-16T22:46:17.325Z,7.60
2019-03-16T22:49:00.958Z,7.60
2019-03-16T22:51:22.200Z,7.60
2019-03-16T22:53:52.216Z,7.60
2019-03-16T22:56:22.202Z,7.50
2019-03-16T22:58:52.250Z,7.50
2019-03-16T23:01:27.086Z,7.40
2019-03-16T23:04:06.387Z,7.50
2019-03-16T23:06:30.258Z,7.40
2019-03-16T23:09:19.159Z,7.30
2019-03-16T23:11:50.359Z,7.30
2019-03-16T23:14:27.798Z,7.30
2019-03-16T23:17:00.959Z,7.20
2019-03-16T23:19:33.979Z,7.10
2019-03-16T23:22:04.176Z,7.10
2019-03-16T23:24:39.289Z,7.00
2019-03-16T23:27:09.411Z,7.00
2019-03-16T23:29:45.375Z,6.90
2019-03-16T23:32:27.172Z,6.80
2019-03-16T23:34:57.281Z,6.80
2019-03-16T23:37:28.789Z,6.70
2019-03-16T23:40:03.630Z,6.60
2019-03-16T23:42:36.550Z,6.60
2019-03-16T23:45:12.763Z,6.50
2019-03-16T23:47:54.506Z,6.50
2019-03-16T23:50:27.959Z,6.50
2019-03-16T23:53:00.892Z,6.50
2019-03-16T23:55:37.921Z,6.40
2019-03-16T23:58:05.881Z,6.40
